メインページ
METAR-TAF:

METAR-TAF

空港 :

アトランタ, ジョージア州, アメリカ合衆国

ハーツフィールド・ジャクソン・アトランタ国際空港

緯度: 33-38-25N, 経度: 084-25-37W, 海抜: 313m

現時点の気象観測

当レポートは38分前の15:52(UTC)に作成
北西の風 11kt
気温 14°C
湿度 51%
気圧 1019 hPa
視程: 16.1km
高度25000ftの千切れ雲あり

METAR: KATL 221552Z 32011KT 10SM BKN250 14/04 A3010 RMK AO2 SLP193 T01440044

時間: 11:30 (16:30 UTC)

予報

当レポートは47分前の15:43(UTC)に作成
予報は22日の 16時(UTC)から 23日の 18時(UTC)まで有効
北/北西の風 12kt、最大18ktの突風を伴う
視程: 10km
高度25000ftの雲はほとんどない
22日の 2200時(UTC)から
北/北西の風 8kt
視程: 10km
高度25000ftの雲は散在している
23日の 0600時(UTC)から
北/北東の風 6kt
視程: 10km
高度3500ftの千切れ雲あり
23日の 1000時(UTC)から
東/北東の風 8kt
視程: 10km
高度3500ftの千切れ雲あり

TAF: KATL 221543Z 2216/2318 34012G18KT P6SM FEW250 FM222200 34008KT P6SM SCT250 FM230600 02006KT P6SM BKN035 FM231000 06008KT P6SM BKN035

4,000以上の空港の気象観測と天気予報(METAR報とTAF報)

利用可能な観測所は地図上に黄色い丸と赤い丸で示す。

丸の上にカーソルを重ねると観測所名を参照できる。

次にクリックすると気象観測と天気予報を参照できる。

マップの切り替え:黒色「×」印の緑ボタンをクリックして拡大、「-」印の緑ボタンをクリックして縮小、緑色の三角印をクリックして隣りの地図に切り替え


METAR-TAF: